HBBA/BJM METAR and TAF weather

Enter ICAO airport designator
Station Type Date Time Source
HBBA METAR 2020/08/15 05:00 UTC NOAA

HBBA 150500Z 34010KT 7000 FEW020 BKN100 20/17 Q1013 NOSIG


Station Type Date Time Source
HBBA Decoded METAR 2020/08/15 05:00 UTC NOAA

Bujumbura, Burundi (HBBA) 03-19S 029-19E 783M
Aug 15, 2020 - 01:00 AM EDT / 2020.08.15 0500 UTC
Wind: from the NNW (340 degrees) at 12 MPH (10 KT):0
Visibility: 4 mile(s):0
Sky conditions: mostly cloudy
Temperature: 68 F (20 C)
Dew Point: 62 F (17 C)
Relative Humidity: 82%
Pressure (altimeter): 29.91 in. Hg (1013 hPa)
ob: HBBA 150500Z 34010KT 7000 FEW020 BKN100 20/17 Q1013 NOSIG
cycle: 5

Station Type Date Time Source
HBBA TAF 2020/08/14 06:56 UTC NOAA

TAF HBBA 140500Z 1406/1512 36003KT 4000 HZ FEW025 BKN090
BECMG 1409/1411 18012G25KT 8000 FEW030
BECMG 1418/1420 00000KT 8000 NSC
BECMG 1507/1509 18010G20KT 7000 FEW030 BKN100

Example: see airport list